sensor_id;sensor_type;location;lat;lon;timestamp;P1;durP1;ratioP1;P2;durP2;ratioP2
75634;SDS011;64227;48.724;9.104;2023-05-07T00:01:41;1.88;;;1.45;;
75634;SDS011;64227;48.724;9.104;2023-05-07T00:04:06;1.35;;;1.10;;
75634;SDS011;64227;48.724;9.104;2023-05-07T00:06:32;1.10;;;1.00;;
75634;SDS011;64227;48.724;9.104;2023-05-07T00:08:58;3.05;;;1.30;;
75634;SDS011;64227;48.724;9.104;2023-05-07T00:11:23;3.45;;;1.13;;
75634;SDS011;64227;48.724;9.104;2023-05-07T00:13:48;1.45;;;1.20;;
75634;SDS011;64227;48.724;9.104;2023-05-07T00:16:14;1.33;;;1.20;;
75634;SDS011;64227;48.724;9.104;2023-05-07T00:18:39;1.45;;;1.35;;
75634;SDS011;64227;48.724;9.104;2023-05-07T00:21:04;1.60;;;1.10;;
75634;SDS011;64227;48.724;9.104;2023-05-07T00:23:30;1.20;;;0.90;;
75634;SDS011;64227;48.724;9.104;2023-05-07T00:25:55;1.20;;;1.10;;
75634;SDS011;64227;48.724;9.104;2023-05-07T00:28:21;2.72;;;1.30;;
75634;SDS011;64227;48.724;9.104;2023-05-07T00:30:46;1.35;;;0.95;;
75634;SDS011;64227;48.724;9.104;2023-05-07T00:33:11;1.60;;;1.25;;
75634;SDS011;64227;48.724;9.104;2023-05-07T00:35:36;1.25;;;1.13;;
75634;SDS011;64227;48.724;9.104;2023-05-07T00:38:02;1.23;;;1.00;;
75634;SDS011;64227;48.724;9.104;2023-05-07T00:40:27;1.60;;;1.08;;
75634;SDS011;64227;48.724;9.104;2023-05-07T00:42:53;1.30;;;1.20;;
75634;SDS011;64227;48.724;9.104;2023-05-07T00:45:22;1.40;;;1.25;;
75634;SDS011;64227;48.724;9.104;2023-05-07T00:47:53;1.17;;;1.02;;
75634;SDS011;64227;48.724;9.104;2023-05-07T00:50:19;2.13;;;1.00;;
75634;SDS011;64227;48.724;9.104;2023-05-07T00:52:45;1.90;;;1.00;;
75634;SDS011;64227;48.724;9.104;2023-05-07T00:55:10;1.73;;;1.20;;
75634;SDS011;64227;48.724;9.104;2023-05-07T00:57:37;1.20;;;1.10;;
75634;SDS011;64227;48.724;9.104;2023-05-07T01:00:06;1.10;;;1.00;;
75634;SDS011;64227;48.724;9.104;2023-05-07T01:02:33;1.60;;;1.40;;
75634;SDS011;64227;48.724;9.104;2023-05-07T01:04:59;1.13;;;1.02;;
75634;SDS011;64227;48.724;9.104;2023-05-07T01:07:25;1.40;;;1.30;;
75634;SDS011;64227;48.724;9.104;2023-05-07T01:09:50;1.33;;;1.23;;
75634;SDS011;64227;48.724;9.104;2023-05-07T01:12:16;2.33;;;1.48;;
75634;SDS011;64227;48.724;9.104;2023-05-07T01:14:42;1.65;;;1.50;;
75634;SDS011;64227;48.724;9.104;2023-05-07T01:17:07;1.67;;;1.35;;
75634;SDS011;64227;48.724;9.104;2023-05-07T01:19:33;1.10;;;1.00;;
75634;SDS011;64227;48.724;9.104;2023-05-07T01:22:03;1.83;;;1.30;;
75634;SDS011;64227;48.724;9.104;2023-05-07T01:24:29;1.45;;;1.30;;
75634;SDS011;64227;48.724;9.104;2023-05-07T01:26:56;1.42;;;1.33;;
75634;SDS011;64227;48.724;9.104;2023-05-07T01:29:21;1.75;;;1.25;;
75634;SDS011;64227;48.724;9.104;2023-05-07T01:31:46;2.70;;;1.50;;
75634;SDS011;64227;48.724;9.104;2023-05-07T01:34:12;1.30;;;1.20;;
75634;SDS011;64227;48.724;9.104;2023-05-07T01:36:38;1.20;;;1.10;;
75634;SDS011;64227;48.724;9.104;2023-05-07T01:39:04;2.13;;;1.33;;
75634;SDS011;64227;48.724;9.104;2023-05-07T01:41:30;1.77;;;1.30;;
75634;SDS011;64227;48.724;9.104;2023-05-07T01:43:56;1.52;;;1.40;;
75634;SDS011;64227;48.724;9.104;2023-05-07T01:46:23;1.60;;;1.30;;
75634;SDS011;64227;48.724;9.104;2023-05-07T01:48:48;1.63;;;1.10;;
75634;SDS011;64227;48.724;9.104;2023-05-07T01:51:14;1.48;;;1.38;;
75634;SDS011;64227;48.724;9.104;2023-05-07T01:53:39;1.63;;;1.38;;
75634;SDS011;64227;48.724;9.104;2023-05-07T01:56:05;2.53;;;1.30;;
75634;SDS011;64227;48.724;9.104;2023-05-07T01:58:31;1.50;;;1.40;;
75634;SDS011;64227;48.724;9.104;2023-05-07T02:00:56;1.90;;;1.58;;
75634;SDS011;64227;48.724;9.104;2023-05-07T02:03:22;2.90;;;1.52;;
75634;SDS011;64227;48.724;9.104;2023-05-07T02:05:47;1.35;;;1.23;;
75634;SDS011;64227;48.724;9.104;2023-05-07T02:08:12;1.63;;;1.33;;
75634;SDS011;64227;48.724;9.104;2023-05-07T02:10:37;1.42;;;1.30;;
75634;SDS011;64227;48.724;9.104;2023-05-07T02:13:03;1.30;;;1.20;;
75634;SDS011;64227;48.724;9.104;2023-05-07T02:15:28;1.52;;;1.25;;
75634;SDS011;64227;48.724;9.104;2023-05-07T02:18:04;1.40;;;1.30;;
75634;SDS011;64227;48.724;9.104;2023-05-07T02:20:31;1.42;;;1.08;;
75634;SDS011;64227;48.724;9.104;2023-05-07T02:22:56;1.17;;;1.08;;
75634;SDS011;64227;48.724;9.104;2023-05-07T02:25:22;2.42;;;1.40;;
75634;SDS011;64227;48.724;9.104;2023-05-07T02:27:47;1.70;;;1.38;;
75634;SDS011;64227;48.724;9.104;2023-05-07T02:30:13;1.60;;;1.08;;
75634;SDS011;64227;48.724;9.104;2023-05-07T02:32:38;1.10;;;1.00;;
75634;SDS011;64227;48.724;9.104;2023-05-07T02:35:04;1.55;;;1.35;;
75634;SDS011;64227;48.724;9.104;2023-05-07T02:37:30;1.98;;;1.30;;
75634;SDS011;64227;48.724;9.104;2023-05-07T02:39:55;3.00;;;1.30;;
75634;SDS011;64227;48.724;9.104;2023-05-07T02:42:21;1.48;;;1.30;;
75634;SDS011;64227;48.724;9.104;2023-05-07T02:44:46;1.73;;;1.10;;
75634;SDS011;64227;48.724;9.104;2023-05-07T02:47:11;1.13;;;1.02;;
75634;SDS011;64227;48.724;9.104;2023-05-07T02:49:38;1.23;;;1.13;;
75634;SDS011;64227;48.724;9.104;2023-05-07T02:52:03;1.83;;;0.95;;
75634;SDS011;64227;48.724;9.104;2023-05-07T02:54:29;1.25;;;1.15;;
75634;SDS011;64227;48.724;9.104;2023-05-07T02:56:54;1.15;;;1.05;;
75634;SDS011;64227;48.724;9.104;2023-05-07T02:59:20;1.45;;;1.25;;
75634;SDS011;64227;48.724;9.104;2023-05-07T03:01:45;1.60;;;1.20;;
75634;SDS011;64227;48.724;9.104;2023-05-07T03:04:10;1.40;;;1.30;;
75634;SDS011;64227;48.724;9.104;2023-05-07T03:06:36;1.30;;;1.20;;
75634;SDS011;64227;48.724;9.104;2023-05-07T03:09:02;1.35;;;1.25;;
75634;SDS011;64227;48.724;9.104;2023-05-07T03:11:27;1.23;;;1.10;;
75634;SDS011;64227;48.724;9.104;2023-05-07T03:13:52;1.67;;;1.30;;
75634;SDS011;64227;48.724;9.104;2023-05-07T03:16:18;1.13;;;1.02;;
75634;SDS011;64227;48.724;9.104;2023-05-07T03:18:43;1.38;;;1.17;;
75634;SDS011;64227;48.724;9.104;2023-05-07T03:21:08;1.27;;;1.10;;
75634;SDS011;64227;48.724;9.104;2023-05-07T03:23:34;1.25;;;1.15;;
75634;SDS011;64227;48.724;9.104;2023-05-07T03:25:59;2.47;;;1.13;;
75634;SDS011;64227;48.724;9.104;2023-05-07T03:28:24;0.85;;;0.80;;
75634;SDS011;64227;48.724;9.104;2023-05-07T03:30:50;1.20;;;1.00;;
75634;SDS011;64227;48.724;9.104;2023-05-07T03:33:15;1.65;;;1.13;;
75634;SDS011;64227;48.724;9.104;2023-05-07T03:35:41;2.05;;;1.52;;
75634;SDS011;64227;48.724;9.104;2023-05-07T03:38:06;1.23;;;1.13;;
75634;SDS011;64227;48.724;9.104;2023-05-07T03:40:32;1.33;;;1.10;;
75634;SDS011;64227;48.724;9.104;2023-05-07T03:42:57;1.55;;;1.15;;
75634;SDS011;64227;48.724;9.104;2023-05-07T03:45:22;1.42;;;1.33;;
75634;SDS011;64227;48.724;9.104;2023-05-07T03:47:48;1.13;;;1.02;;
75634;SDS011;64227;48.724;9.104;2023-05-07T03:50:13;1.10;;;0.98;;
75634;SDS011;64227;48.724;9.104;2023-05-07T03:52:38;1.10;;;1.00;;
75634;SDS011;64227;48.724;9.104;2023-05-07T03:55:04;1.33;;;1.17;;
75634;SDS011;64227;48.724;9.104;2023-05-07T03:57:30;1.63;;;1.15;;
75634;SDS011;64227;48.724;9.104;2023-05-07T03:59:56;1.08;;;0.98;;
75634;SDS011;64227;48.724;9.104;2023-05-07T04:02:21;1.30;;;1.20;;
75634;SDS011;64227;48.724;9.104;2023-05-07T04:04:48;1.05;;;0.90;;
75634;SDS011;64227;48.724;9.104;2023-05-07T04:07:13;1.42;;;1.00;;
75634;SDS011;64227;48.724;9.104;2023-05-07T04:09:39;1.20;;;1.10;;
75634;SDS011;64227;48.724;9.104;2023-05-07T04:12:04;1.27;;;1.13;;
75634;SDS011;64227;48.724;9.104;2023-05-07T04:14:30;1.38;;;1.02;;
75634;SDS011;64227;48.724;9.104;2023-05-07T04:16:57;1.50;;;1.13;;
75634;SDS011;64227;48.724;9.104;2023-05-07T04:19:23;1.13;;;1.00;;
75634;SDS011;64227;48.724;9.104;2023-05-07T04:21:48;1.88;;;1.20;;
75634;SDS011;64227;48.724;9.104;2023-05-07T04:24:13;1.00;;;0.90;;
75634;SDS011;64227;48.724;9.104;2023-05-07T04:26:39;1.88;;;1.00;;
75634;SDS011;64227;48.724;9.104;2023-05-07T04:29:05;0.95;;;0.93;;
75634;SDS011;64227;48.724;9.104;2023-05-07T04:31:30;2.67;;;1.05;;
75634;SDS011;64227;48.724;9.104;2023-05-07T04:33:56;0.95;;;0.90;;
75634;SDS011;64227;48.724;9.104;2023-05-07T04:36:22;1.45;;;1.25;;
75634;SDS011;64227;48.724;9.104;2023-05-07T04:38:47;0.85;;;0.80;;
75634;SDS011;64227;48.724;9.104;2023-05-07T04:41:12;0.77;;;0.77;;
75634;SDS011;64227;48.724;9.104;2023-05-07T04:43:38;0.77;;;0.77;;
75634;SDS011;64227;48.724;9.104;2023-05-07T04:46:03;1.02;;;0.95;;
75634;SDS011;64227;48.724;9.104;2023-05-07T04:48:28;1.10;;;0.90;;
75634;SDS011;64227;48.724;9.104;2023-05-07T04:50:54;0.93;;;0.85;;
75634;SDS011;64227;48.724;9.104;2023-05-07T04:53:19;1.50;;;0.90;;
75634;SDS011;64227;48.724;9.104;2023-05-07T04:55:45;1.10;;;1.00;;
75634;SDS011;64227;48.724;9.104;2023-05-07T04:58:10;1.00;;;0.90;;
75634;SDS011;64227;48.724;9.104;2023-05-07T05:00:36;1.27;;;0.90;;
75634;SDS011;64227;48.724;9.104;2023-05-07T05:03:02;2.10;;;1.17;;
75634;SDS011;64227;48.724;9.104;2023-05-07T05:05:27;0.68;;;0.68;;
75634;SDS011;64227;48.724;9.104;2023-05-07T05:07:53;1.30;;;1.00;;
75634;SDS011;64227;48.724;9.104;2023-05-07T05:10:18;0.80;;;0.80;;
75634;SDS011;64227;48.724;9.104;2023-05-07T05:12:43;0.63;;;0.63;;
75634;SDS011;64227;48.724;9.104;2023-05-07T05:15:10;1.25;;;1.15;;
75634;SDS011;64227;48.724;9.104;2023-05-07T05:17:36;1.10;;;1.00;;
75634;SDS011;64227;48.724;9.104;2023-05-07T05:20:02;2.05;;;1.00;;
75634;SDS011;64227;48.724;9.104;2023-05-07T05:22:27;0.80;;;0.80;;
75634;SDS011;64227;48.724;9.104;2023-05-07T05:24:54;0.95;;;0.85;;
75634;SDS011;64227;48.724;9.104;2023-05-07T05:27:20;0.80;;;0.70;;
75634;SDS011;64227;48.724;9.104;2023-05-07T05:29:45;1.88;;;0.75;;
75634;SDS011;64227;48.724;9.104;2023-05-07T05:32:10;1.27;;;0.80;;
75634;SDS011;64227;48.724;9.104;2023-05-07T05:34:36;0.98;;;0.88;;
75634;SDS011;64227;48.724;9.104;2023-05-07T05:37:01;1.20;;;0.90;;
75634;SDS011;64227;48.724;9.104;2023-05-07T05:39:26;1.75;;;1.40;;
75634;SDS011;64227;48.724;9.104;2023-05-07T05:41:51;3.65;;;1.80;;
75634;SDS011;64227;48.724;9.104;2023-05-07T05:44:17;3.00;;;1.85;;
75634;SDS011;64227;48.724;9.104;2023-05-07T05:46:42;1.77;;;1.35;;
75634;SDS011;64227;48.724;9.104;2023-05-07T05:49:07;2.42;;;1.80;;
75634;SDS011;64227;48.724;9.104;2023-05-07T05:51:33;1.60;;;1.50;;
75634;SDS011;64227;48.724;9.104;2023-05-07T05:53:58;3.17;;;1.98;;
75634;SDS011;64227;48.724;9.104;2023-05-07T05:56:24;2.03;;;1.70;;
75634;SDS011;64227;48.724;9.104;2023-05-07T05:58:49;2.38;;;1.40;;
75634;SDS011;64227;48.724;9.104;2023-05-07T06:01:18;2.13;;;1.92;;
75634;SDS011;64227;48.724;9.104;2023-05-07T06:03:44;2.05;;;1.58;;
75634;SDS011;64227;48.724;9.104;2023-05-07T06:06:09;1.70;;;1.60;;
75634;SDS011;64227;48.724;9.104;2023-05-07T06:08:34;1.73;;;1.35;;
75634;SDS011;64227;48.724;9.104;2023-05-07T06:11:00;1.80;;;1.60;;
75634;SDS011;64227;48.724;9.104;2023-05-07T06:13:26;3.70;;;1.85;;
75634;SDS011;64227;48.724;9.104;2023-05-07T06:15:51;1.88;;;1.67;;
75634;SDS011;64227;48.724;9.104;2023-05-07T06:18:17;2.92;;;2.05;;
75634;SDS011;64227;48.724;9.104;2023-05-07T06:20:42;3.22;;;2.17;;
75634;SDS011;64227;48.724;9.104;2023-05-07T06:23:07;2.20;;;2.00;;
75634;SDS011;64227;48.724;9.104;2023-05-07T06:25:32;2.30;;;1.60;;
75634;SDS011;64227;48.724;9.104;2023-05-07T06:27:58;1.90;;;1.58;;
75634;SDS011;64227;48.724;9.104;2023-05-07T06:30:23;1.60;;;1.50;;
75634;SDS011;64227;48.724;9.104;2023-05-07T06:32:49;2.58;;;1.40;;
75634;SDS011;64227;48.724;9.104;2023-05-07T06:35:14;2.83;;;2.20;;
75634;SDS011;64227;48.724;9.104;2023-05-07T06:37:40;2.30;;;2.10;;
75634;SDS011;64227;48.724;9.104;2023-05-07T06:40:07;2.50;;;2.30;;
75634;SDS011;64227;48.724;9.104;2023-05-07T06:42:33;2.85;;;2.33;;
75634;SDS011;64227;48.724;9.104;2023-05-07T06:44:59;3.55;;;2.47;;
75634;SDS011;64227;48.724;9.104;2023-05-07T06:47:24;2.00;;;1.70;;
75634;SDS011;64227;48.724;9.104;2023-05-07T06:49:49;2.85;;;1.90;;
75634;SDS011;64227;48.724;9.104;2023-05-07T06:52:15;2.78;;;1.85;;
75634;SDS011;64227;48.724;9.104;2023-05-07T06:54:40;3.08;;;1.88;;
75634;SDS011;64227;48.724;9.104;2023-05-07T06:57:05;1.83;;;1.63;;
75634;SDS011;64227;48.724;9.104;2023-05-07T06:59:31;2.15;;;1.40;;
75634;SDS011;64227;48.724;9.104;2023-05-07T07:01:56;2.53;;;2.22;;
75634;SDS011;64227;48.724;9.104;2023-05-07T07:04:21;2.05;;;1.67;;
75634;SDS011;64227;48.724;9.104;2023-05-07T07:06:48;2.75;;;2.00;;
75634;SDS011;64227;48.724;9.104;2023-05-07T07:09:14;2.22;;;2.03;;
75634;SDS011;64227;48.724;9.104;2023-05-07T07:11:39;3.20;;;2.15;;
75634;SDS011;64227;48.724;9.104;2023-05-07T07:14:04;2.60;;;2.30;;
75634;SDS011;64227;48.724;9.104;2023-05-07T07:16:30;3.65;;;2.03;;
75634;SDS011;64227;48.724;9.104;2023-05-07T07:18:55;2.40;;;1.70;;
75634;SDS011;64227;48.724;9.104;2023-05-07T07:21:21;2.17;;;1.90;;
75634;SDS011;64227;48.724;9.104;2023-05-07T07:23:46;1.63;;;1.52;;
75634;SDS011;64227;48.724;9.104;2023-05-07T07:26:11;2.15;;;1.80;;
75634;SDS011;64227;48.724;9.104;2023-05-07T07:28:43;3.05;;;2.10;;
75634;SDS011;64227;48.724;9.104;2023-05-07T07:31:09;2.72;;;2.00;;
75634;SDS011;64227;48.724;9.104;2023-05-07T07:33:35;1.83;;;1.50;;
75634;SDS011;64227;48.724;9.104;2023-05-07T07:36:00;1.88;;;1.67;;
75634;SDS011;64227;48.724;9.104;2023-05-07T07:38:25;3.28;;;2.20;;
75634;SDS011;64227;48.724;9.104;2023-05-07T07:40:51;2.10;;;1.80;;
75634;SDS011;64227;48.724;9.104;2023-05-07T07:43:16;1.90;;;1.70;;
75634;SDS011;64227;48.724;9.104;2023-05-07T07:45:41;3.92;;;2.00;;
75634;SDS011;64227;48.724;9.104;2023-05-07T07:48:06;3.58;;;2.10;;
75634;SDS011;64227;48.724;9.104;2023-05-07T07:50:32;2.22;;;2.00;;
75634;SDS011;64227;48.724;9.104;2023-05-07T07:52:57;3.47;;;1.80;;
75634;SDS011;64227;48.724;9.104;2023-05-07T07:55:22;2.33;;;1.83;;
75634;SDS011;64227;48.724;9.104;2023-05-07T07:57:48;1.95;;;1.80;;
75634;SDS011;64227;48.724;9.104;2023-05-07T08:00:14;2.17;;;1.70;;
75634;SDS011;64227;48.724;9.104;2023-05-07T08:02:40;1.65;;;1.42;;
75634;SDS011;64227;48.724;9.104;2023-05-07T08:05:06;2.38;;;1.60;;
75634;SDS011;64227;48.724;9.104;2023-05-07T08:07:31;2.63;;;1.92;;
75634;SDS011;64227;48.724;9.104;2023-05-07T08:09:57;1.92;;;1.35;;
75634;SDS011;64227;48.724;9.104;2023-05-07T08:12:22;1.73;;;1.33;;
75634;SDS011;64227;48.724;9.104;2023-05-07T08:14:47;2.80;;;1.52;;
75634;SDS011;64227;48.724;9.104;2023-05-07T08:17:13;1.92;;;1.30;;
75634;SDS011;64227;48.724;9.104;2023-05-07T08:19:40;2.78;;;1.58;;
75634;SDS011;64227;48.724;9.104;2023-05-07T08:22:06;2.45;;;1.48;;
75634;SDS011;64227;48.724;9.104;2023-05-07T08:24:31;2.22;;;1.35;;
75634;SDS011;64227;48.724;9.104;2023-05-07T08:26:56;1.65;;;1.17;;
75634;SDS011;64227;48.724;9.104;2023-05-07T08:29:22;1.65;;;1.25;;
75634;SDS011;64227;48.724;9.104;2023-05-07T08:31:47;1.52;;;1.40;;
75634;SDS011;64227;48.724;9.104;2023-05-07T08:34:12;1.30;;;1.20;;
75634;SDS011;64227;48.724;9.104;2023-05-07T08:36:38;2.00;;;1.42;;
75634;SDS011;64227;48.724;9.104;2023-05-07T08:39:03;3.47;;;1.50;;
75634;SDS011;64227;48.724;9.104;2023-05-07T08:41:28;1.67;;;1.33;;
75634;SDS011;64227;48.724;9.104;2023-05-07T08:43:54;1.60;;;1.40;;
75634;SDS011;64227;48.724;9.104;2023-05-07T08:46:22;3.35;;;1.20;;
75634;SDS011;64227;48.724;9.104;2023-05-07T08:48:48;1.60;;;1.20;;
75634;SDS011;64227;48.724;9.104;2023-05-07T08:51:15;1.35;;;1.25;;
75634;SDS011;64227;48.724;9.104;2023-05-07T08:56:10;1.87;;;1.47;;
75634;SDS011;64227;48.724;9.104;2023-05-07T08:58:36;2.75;;;1.40;;
75634;SDS011;64227;48.724;9.104;2023-05-07T09:01:20;2.38;;;1.30;;
75634;SDS011;64227;48.724;9.104;2023-05-07T09:03:45;1.40;;;1.30;;
75634;SDS011;64227;48.724;9.104;2023-05-07T09:06:11;2.47;;;1.50;;
75634;SDS011;64227;48.724;9.104;2023-05-07T09:08:37;1.30;;;1.17;;
75634;SDS011;64227;48.724;9.104;2023-05-07T09:11:02;2.13;;;1.50;;
75634;SDS011;64227;48.724;9.104;2023-05-07T09:13:28;1.73;;;1.48;;
75634;SDS011;64227;48.724;9.104;2023-05-07T09:15:53;1.13;;;1.10;;
75634;SDS011;64227;48.724;9.104;2023-05-07T09:18:19;1.58;;;1.48;;
75634;SDS011;64227;48.724;9.104;2023-05-07T09:20:44;1.95;;;1.35;;
75634;SDS011;64227;48.724;9.104;2023-05-07T09:23:09;1.40;;;1.27;;
75634;SDS011;64227;48.724;9.104;2023-05-07T09:25:35;1.25;;;1.15;;
75634;SDS011;64227;48.724;9.104;2023-05-07T09:28:01;2.97;;;1.60;;
75634;SDS011;64227;48.724;9.104;2023-05-07T09:30:29;1.65;;;1.45;;
75634;SDS011;64227;48.724;9.104;2023-05-07T09:32:55;2.58;;;1.38;;
75634;SDS011;64227;48.724;9.104;2023-05-07T09:35:21;2.30;;;1.23;;
75634;SDS011;64227;48.724;9.104;2023-05-07T09:37:49;1.63;;;1.25;;
75634;SDS011;64227;48.724;9.104;2023-05-07T09:40:21;1.92;;;1.15;;
75634;SDS011;64227;48.724;9.104;2023-05-07T09:42:47;1.95;;;1.27;;
75634;SDS011;64227;48.724;9.104;2023-05-07T09:45:14;2.05;;;1.45;;
75634;SDS011;64227;48.724;9.104;2023-05-07T09:47:39;1.48;;;1.13;;
75634;SDS011;64227;48.724;9.104;2023-05-07T09:50:09;2.53;;;1.20;;
75634;SDS011;64227;48.724;9.104;2023-05-07T09:52:35;1.75;;;1.00;;
75634;SDS011;64227;48.724;9.104;2023-05-07T09:55:02;1.85;;;1.75;;
75634;SDS011;64227;48.724;9.104;2023-05-07T09:57:28;1.58;;;1.25;;
75634;SDS011;64227;48.724;9.104;2023-05-07T09:59:54;1.35;;;1.25;;
75634;SDS011;64227;48.724;9.104;2023-05-07T10:02:21;1.35;;;1.17;;
75634;SDS011;64227;48.724;9.104;2023-05-07T10:04:46;1.60;;;1.50;;
75634;SDS011;64227;48.724;9.104;2023-05-07T10:07:13;1.55;;;1.42;;
75634;SDS011;64227;48.724;9.104;2023-05-07T10:09:39;1.40;;;1.30;;
75634;SDS011;64227;48.724;9.104;2023-05-07T10:12:07;2.97;;;1.42;;
75634;SDS011;64227;48.724;9.104;2023-05-07T10:14:32;1.30;;;1.20;;
75634;SDS011;64227;48.724;9.104;2023-05-07T10:16:58;2.10;;;1.23;;
75634;SDS011;64227;48.724;9.104;2023-05-07T10:19:24;2.63;;;1.20;;
75634;SDS011;64227;48.724;9.104;2023-05-07T10:21:59;1.65;;;1.33;;
75634;SDS011;64227;48.724;9.104;2023-05-07T10:24:29;1.80;;;1.27;;
75634;SDS011;64227;48.724;9.104;2023-05-07T10:26:56;1.42;;;1.17;;
75634;SDS011;64227;48.724;9.104;2023-05-07T10:34:43;1.85;;;1.10;;
75634;SDS011;64227;48.724;9.104;2023-05-07T10:37:10;1.52;;;1.40;;
75634;SDS011;64227;48.724;9.104;2023-05-07T10:39:36;1.23;;;1.02;;
75634;SDS011;64227;48.724;9.104;2023-05-07T10:42:20;0.98;;;0.93;;
75634;SDS011;64227;48.724;9.104;2023-05-07T10:44:45;1.55;;;1.13;;
75634;SDS011;64227;48.724;9.104;2023-05-07T10:47:12;2.00;;;0.90;;
75634;SDS011;64227;48.724;9.104;2023-05-07T10:52:20;2.67;;;1.23;;
75634;SDS011;64227;48.724;9.104;2023-05-07T10:54:48;1.80;;;0.90;;
75634;SDS011;64227;48.724;9.104;2023-05-07T10:57:44;1.42;;;1.10;;
75634;SDS011;64227;48.724;9.104;2023-05-07T11:05:25;1.55;;;0.90;;
75634;SDS011;64227;48.724;9.104;2023-05-07T11:07:58;1.48;;;0.95;;
75634;SDS011;64227;48.724;9.104;2023-05-07T11:13:15;3.17;;;1.55;;
75634;SDS011;64227;48.724;9.104;2023-05-07T11:15:42;2.33;;;1.40;;
75634;SDS011;64227;48.724;9.104;2023-05-07T11:18:09;1.52;;;1.23;;
75634;SDS011;64227;48.724;9.104;2023-05-07T11:25:59;1.15;;;1.02;;
75634;SDS011;64227;48.724;9.104;2023-05-07T11:28:28;2.20;;;1.27;;
75634;SDS011;64227;48.724;9.104;2023-05-07T11:30:54;1.17;;;1.00;;
75634;SDS011;64227;48.724;9.104;2023-05-07T11:33:21;2.05;;;1.20;;
75634;SDS011;64227;48.724;9.104;2023-05-07T11:35:47;1.60;;;1.05;;
75634;SDS011;64227;48.724;9.104;2023-05-07T11:38:12;1.95;;;1.10;;
75634;SDS011;64227;48.724;9.104;2023-05-07T11:40:56;2.60;;;1.15;;
75634;SDS011;64227;48.724;9.104;2023-05-07T11:43:23;1.98;;;1.10;;
75634;SDS011;64227;48.724;9.104;2023-05-07T11:45:49;1.77;;;1.23;;
75634;SDS011;64227;48.724;9.104;2023-05-07T11:48:15;2.28;;;1.35;;
75634;SDS011;64227;48.724;9.104;2023-05-07T11:50:50;2.55;;;1.17;;
75634;SDS011;64227;48.724;9.104;2023-05-07T11:53:17;1.48;;;1.20;;
75634;SDS011;64227;48.724;9.104;2023-05-07T11:55:42;1.10;;;0.88;;
75634;SDS011;64227;48.724;9.104;2023-05-07T11:58:09;2.78;;;1.10;;
75634;SDS011;64227;48.724;9.104;2023-05-07T12:00:36;1.67;;;1.27;;
75634;SDS011;64227;48.724;9.104;2023-05-07T12:03:04;1.40;;;1.30;;
75634;SDS011;64227;48.724;9.104;2023-05-07T12:05:30;2.25;;;1.38;;
75634;SDS011;64227;48.724;9.104;2023-05-07T12:07:56;3.33;;;1.60;;
75634;SDS011;64227;48.724;9.104;2023-05-07T12:10:22;2.85;;;1.40;;
75634;SDS011;64227;48.724;9.104;2023-05-07T12:12:47;5.05;;;1.50;;
75634;SDS011;64227;48.724;9.104;2023-05-07T12:15:15;1.20;;;1.10;;
75634;SDS011;64227;48.724;9.104;2023-05-07T12:17:42;2.22;;;1.00;;
75634;SDS011;64227;48.724;9.104;2023-05-07T12:20:07;2.30;;;1.00;;
75634;SDS011;64227;48.724;9.104;2023-05-07T12:22:33;0.75;;;0.73;;
75634;SDS011;64227;48.724;9.104;2023-05-07T12:24:58;2.10;;;0.90;;
75634;SDS011;64227;48.724;9.104;2023-05-07T12:27:25;2.10;;;0.95;;
75634;SDS011;64227;48.724;9.104;2023-05-07T12:29:50;4.55;;;1.27;;
75634;SDS011;64227;48.724;9.104;2023-05-07T12:32:16;2.05;;;0.65;;
75634;SDS011;64227;48.724;9.104;2023-05-07T12:34:46;1.77;;;1.00;;
75634;SDS011;64227;48.724;9.104;2023-05-07T12:37:12;2.17;;;0.75;;
75634;SDS011;64227;48.724;9.104;2023-05-07T12:39:38;3.35;;;0.80;;
75634;SDS011;64227;48.724;9.104;2023-05-07T12:42:08;2.15;;;0.70;;
75634;SDS011;64227;48.724;9.104;2023-05-07T12:44:39;1.25;;;0.60;;
75634;SDS011;64227;48.724;9.104;2023-05-07T12:47:05;2.25;;;0.80;;
75634;SDS011;64227;48.724;9.104;2023-05-07T12:49:30;1.13;;;0.65;;
75634;SDS011;64227;48.724;9.104;2023-05-07T12:51:55;1.35;;;0.70;;
75634;SDS011;64227;48.724;9.104;2023-05-07T12:54:31;1.70;;;0.80;;
75634;SDS011;64227;48.724;9.104;2023-05-07T12:57:10;1.23;;;0.80;;
75634;SDS011;64227;48.724;9.104;2023-05-07T12:59:39;0.90;;;0.82;;
75634;SDS011;64227;48.724;9.104;2023-05-07T13:02:06;2.50;;;0.63;;
75634;SDS011;64227;48.724;9.104;2023-05-07T13:04:31;2.38;;;0.80;;
75634;SDS011;64227;48.724;9.104;2023-05-07T13:06:57;1.13;;;0.60;;
75634;SDS011;64227;48.724;9.104;2023-05-07T13:09:23;0.57;;;0.47;;
75634;SDS011;64227;48.724;9.104;2023-05-07T13:11:48;1.63;;;0.55;;
75634;SDS011;64227;48.724;9.104;2023-05-07T13:14:14;1.20;;;0.73;;
75634;SDS011;64227;48.724;9.104;2023-05-07T13:16:40;0.80;;;0.55;;
75634;SDS011;64227;48.724;9.104;2023-05-07T13:19:05;0.50;;;0.50;;
75634;SDS011;64227;48.724;9.104;2023-05-07T13:21:30;1.38;;;0.60;;
75634;SDS011;64227;48.724;9.104;2023-05-07T13:23:58;0.80;;;0.60;;
75634;SDS011;64227;48.724;9.104;2023-05-07T13:26:24;0.60;;;0.45;;
75634;SDS011;64227;48.724;9.104;2023-05-07T13:28:50;0.50;;;0.50;;
75634;SDS011;64227;48.724;9.104;2023-05-07T13:31:16;1.45;;;0.77;;
75634;SDS011;64227;48.724;9.104;2023-05-07T13:33:42;0.95;;;0.70;;
75634;SDS011;64227;48.724;9.104;2023-05-07T13:36:07;1.05;;;0.95;;
75634;SDS011;64227;48.724;9.104;2023-05-07T13:38:32;3.28;;;0.80;;
75634;SDS011;64227;48.724;9.104;2023-05-07T13:40:58;1.55;;;0.65;;
75634;SDS011;64227;48.724;9.104;2023-05-07T13:43:24;2.05;;;0.70;;
75634;SDS011;64227;48.724;9.104;2023-05-07T13:45:49;2.85;;;1.00;;
75634;SDS011;64227;48.724;9.104;2023-05-07T13:48:15;2.38;;;1.13;;
75634;SDS011;64227;48.724;9.104;2023-05-07T13:50:40;3.58;;;1.50;;
75634;SDS011;64227;48.724;9.104;2023-05-07T13:53:05;1.52;;;1.05;;
75634;SDS011;64227;48.724;9.104;2023-05-07T13:55:30;2.22;;;1.27;;
75634;SDS011;64227;48.724;9.104;2023-05-07T13:57:56;2.72;;;1.20;;
75634;SDS011;64227;48.724;9.104;2023-05-07T14:00:23;2.40;;;1.33;;
75634;SDS011;64227;48.724;9.104;2023-05-07T14:02:48;3.65;;;1.58;;
75634;SDS011;64227;48.724;9.104;2023-05-07T14:05:13;3.47;;;1.80;;
75634;SDS011;64227;48.724;9.104;2023-05-07T14:07:39;3.75;;;1.83;;
75634;SDS011;64227;48.724;9.104;2023-05-07T14:10:04;3.53;;;2.00;;
75634;SDS011;64227;48.724;9.104;2023-05-07T14:12:31;4.07;;;2.28;;
75634;SDS011;64227;48.724;9.104;2023-05-07T14:14:56;2.88;;;2.22;;
75634;SDS011;64227;48.724;9.104;2023-05-07T14:17:22;3.97;;;2.05;;
75634;SDS011;64227;48.724;9.104;2023-05-07T14:19:50;3.20;;;2.42;;
75634;SDS011;64227;48.724;9.104;2023-05-07T14:22:15;2.20;;;2.00;;
75634;SDS011;64227;48.724;9.104;2023-05-07T14:24:40;3.55;;;2.17;;
75634;SDS011;64227;48.724;9.104;2023-05-07T14:27:06;3.05;;;2.10;;
75634;SDS011;64227;48.724;9.104;2023-05-07T14:29:31;4.70;;;1.85;;
75634;SDS011;64227;48.724;9.104;2023-05-07T14:31:57;7.35;;;2.65;;
75634;SDS011;64227;48.724;9.104;2023-05-07T14:34:22;2.63;;;2.03;;
75634;SDS011;64227;48.724;9.104;2023-05-07T14:36:47;2.03;;;1.80;;
75634;SDS011;64227;48.724;9.104;2023-05-07T14:39:13;2.35;;;1.88;;
75634;SDS011;64227;48.724;9.104;2023-05-07T14:41:38;2.90;;;2.15;;
75634;SDS011;64227;48.724;9.104;2023-05-07T14:44:03;2.00;;;1.60;;
75634;SDS011;64227;48.724;9.104;2023-05-07T14:46:29;2.78;;;2.42;;
75634;SDS011;64227;48.724;9.104;2023-05-07T14:48:54;2.50;;;2.30;;
75634;SDS011;64227;48.724;9.104;2023-05-07T14:51:20;2.60;;;2.25;;
75634;SDS011;64227;48.724;9.104;2023-05-07T14:53:45;3.25;;;1.85;;
75634;SDS011;64227;48.724;9.104;2023-05-07T14:56:11;2.90;;;2.00;;
75634;SDS011;64227;48.724;9.104;2023-05-07T14:58:36;2.78;;;2.03;;
75634;SDS011;64227;48.724;9.104;2023-05-07T15:01:02;3.00;;;1.98;;
75634;SDS011;64227;48.724;9.104;2023-05-07T15:03:27;2.55;;;1.63;;
75634;SDS011;64227;48.724;9.104;2023-05-07T15:05:53;2.63;;;2.20;;